createdAt,value
2017-11-03T00:00:38.676Z,82.30
2017-11-03T00:03:06.956Z,81.30
2017-11-03T00:05:35.196Z,81.10
2017-11-03T00:08:03.448Z,80.70
2017-11-03T00:10:31.704Z,80.90
2017-11-03T00:13:00.727Z,82.10
2017-11-03T00:15:28.961Z,82.00
2017-11-03T00:17:57.237Z,82.00
2017-11-03T00:20:25.480Z,82.00
2017-11-03T00:22:53.726Z,81.90
2017-11-03T00:25:22.802Z,81.90
2017-11-03T00:27:51.828Z,81.90
2017-11-03T00:30:20.064Z,81.80
2017-11-03T00:32:48.340Z,81.90
2017-11-03T00:35:16.584Z,81.90
2017-11-03T00:37:44.825Z,81.80
2017-11-03T00:40:14.053Z,81.80
2017-11-03T00:42:42.286Z,81.80
2017-11-03T00:45:10.543Z,81.80
2017-11-03T00:47:39.579Z,81.70
2017-11-03T00:50:07.830Z,81.70
2017-11-03T00:52:36.064Z,81.70
2017-11-03T00:55:04.709Z,81.60
2017-11-03T00:57:32.929Z,82.20
2017-11-03T01:00:02.793Z,82.50
2017-11-03T01:02:31.061Z,82.50
2017-11-03T01:04:59.299Z,82.30
2017-11-03T01:07:27.540Z,82.20
2017-11-03T01:09:56.565Z,83.40
2017-11-03T01:12:24.796Z,83.40
2017-11-03T01:14:53.037Z,83.80
2017-11-03T01:17:22.164Z,84.90
2017-11-03T01:19:50.408Z,84.90
2017-11-03T01:22:18.660Z,85.00
2017-11-03T01:24:46.941Z,85.20
2017-11-03T01:27:15.177Z,85.00
2017-11-03T01:29:43.424Z,85.30
2017-11-03T01:32:12.459Z,85.50
2017-11-03T01:34:40.708Z,85.30
2017-11-03T01:37:09.006Z,85.20
2017-11-03T01:39:38.066Z,84.30
2017-11-03T01:42:06.354Z,84.20
2017-11-03T01:44:34.637Z,83.90
2017-11-03T01:47:03.712Z,83.10
2017-11-03T01:49:32.782Z,82.80
2017-11-03T01:52:01.823Z,83.60
2017-11-03T01:54:30.090Z,82.70
2017-11-03T01:56:58.376Z,82.80
2017-11-03T01:59:26.655Z,82.70
2017-11-03T02:01:55.709Z,82.70
2017-11-03T02:04:23.981Z,82.70
2017-11-03T02:06:53.135Z,83.80
2017-11-03T02:09:21.406Z,83.70
2017-11-03T02:11:49.708Z,84.40
2017-11-03T02:14:17.987Z,84.40
2017-11-03T02:16:46.267Z,84.10
2017-11-03T02:19:14.550Z,84.10
2017-11-03T02:21:42.817Z,84.70
2017-11-03T02:24:11.107Z,84.70
2017-11-03T02:26:40.147Z,85.80
2017-11-03T02:29:08.434Z,85.80
2017-11-03T02:31:37.478Z,86.80
2017-11-03T02:34:05.791Z,86.70
2017-11-03T02:36:34.838Z,88.20
2017-11-03T02:39:03.120Z,87.50
2017-11-03T02:41:32.166Z,88.40
2017-11-03T02:44:00.438Z,88.40
2017-11-03T02:46:30.231Z,89.00
2017-11-03T02:48:58.501Z,89.00
2017-11-03T02:51:26.983Z,89.00
2017-11-03T02:53:55.242Z,89.00
2017-11-03T02:56:23.600Z,89.50
2017-11-03T02:58:51.851Z,89.10
2017-11-03T03:01:20.127Z,89.10
2017-11-03T03:03:49.178Z,89.10
2017-11-03T03:06:17.458Z,89.10
2017-11-03T03:08:47.246Z,89.10
2017-11-03T03:11:15.646Z,89.10
2017-11-03T03:13:43.936Z,89.20
2017-11-03T03:16:12.207Z,89.20
2017-11-03T03:18:40.506Z,89.20
2017-11-03T03:21:08.787Z,89.30
2017-11-03T03:23:37.860Z,88.90
2017-11-03T03:26:06.903Z,88.40
2017-11-03T03:28:35.169Z,88.30
2017-11-03T03:31:03.483Z,88.80
2017-11-03T03:33:31.742Z,89.40
2017-11-03T03:36:00.028Z,88.20
2017-11-03T03:38:28.381Z,87.50
2017-11-03T03:40:56.713Z,88.00
2017-11-03T03:43:25.776Z,88.20
2017-11-03T03:45:54.055Z,88.10
2017-11-03T03:48:23.104Z,89.30
2017-11-03T03:50:51.439Z,89.20
2017-11-03T03:53:19.706Z,89.20
2017-11-03T03:55:47.980Z,89.20
2017-11-03T03:58:16.271Z,89.20
2017-11-03T04:00:45.306Z,89.20
2017-11-03T04:03:13.706Z,89.10
2017-11-03T04:05:41.975Z,89.20
2017-11-03T04:08:11.011Z,88.60
2017-11-03T04:10:39.309Z,88.60
2017-11-03T04:13:08.346Z,89.40
2017-11-03T04:15:36.638Z,88.60
2017-11-03T04:18:04.941Z,88.90
2017-11-03T04:20:34.998Z,88.30
2017-11-03T04:23:03.274Z,88.30
2017-11-03T04:25:33.091Z,88.80
2017-11-03T04:28:02.122Z,89.30
2017-11-03T04:30:30.398Z,89.10
2017-11-03T04:32:58.690Z,89.20
2017-11-03T04:35:27.727Z,89.20
2017-11-03T04:37:56.011Z,89.20
2017-11-03T04:40:24.277Z,89.20
2017-11-03T04:42:53.331Z,89.90
2017-11-03T04:45:21.603Z,89.10
2017-11-03T04:47:49.918Z,89.20
2017-11-03T04:50:18.198Z,89.20
2017-11-03T04:52:46.467Z,89.20
2017-11-03T04:55:14.768Z,89.20
2017-11-03T04:57:43.798Z,89.10
2017-11-03T05:00:12.082Z,89.10
2017-11-03T05:02:40.350Z,89.10
2017-11-03T05:05:08.636Z,89.10
2017-11-03T05:07:37.671Z,89.10
2017-11-03T05:10:06.010Z,89.10
2017-11-03T05:12:34.287Z,89.10
2017-11-03T05:15:02.562Z,89.20
2017-11-03T05:17:30.855Z,88.90
2017-11-03T05:19:59.123Z,88.30
2017-11-03T05:22:28.173Z,88.90
2017-11-03T05:24:56.438Z,88.80
2017-11-03T05:27:24.729Z,89.10
2017-11-03T05:29:53.766Z,89.00
2017-11-03T05:32:22.261Z,88.20
2017-11-03T05:34:50.527Z,87.60
2017-11-03T05:37:19.592Z,88.90
2017-11-03T05:39:48.664Z,88.20
2017-11-03T05:42:16.946Z,88.20
2017-11-03T05:44:45.225Z,87.50
2017-11-03T05:47:14.274Z,88.70
2017-11-03T05:49:42.567Z,88.60
2017-11-03T05:52:10.838Z,88.60
2017-11-03T05:54:40.205Z,87.80
2017-11-03T05:57:08.460Z,87.60
2017-11-03T05:59:37.558Z,87.60
2017-11-03T06:02:05.966Z,87.50
2017-11-03T06:04:34.234Z,87.30
2017-11-03T06:07:02.599Z,87.70
2017-11-03T06:09:30.870Z,87.00
2017-11-03T06:11:59.171Z,86.90
2017-11-03T06:14:28.974Z,86.30
2017-11-03T06:16:57.266Z,86.70
2017-11-03T06:19:25.555Z,86.50
2017-11-03T06:21:54.362Z,86.80
2017-11-03T06:24:23.522Z,87.90
2017-11-03T06:26:52.560Z,89.10
2017-11-03T06:29:20.852Z,88.40
2017-11-03T06:31:49.116Z,88.40
2017-11-03T06:34:18.182Z,88.30
2017-11-03T06:36:46.468Z,88.30
2017-11-03T06:39:15.543Z,88.30
2017-11-03T06:41:43.815Z,88.20
2017-11-03T06:44:13.467Z,88.70
2017-11-03T06:46:41.799Z,88.60
2017-11-03T06:49:10.075Z,89.20
2017-11-03T06:51:39.175Z,89.00
2017-11-03T06:54:07.455Z,88.90
2017-11-03T06:56:37.733Z,88.50
2017-11-03T06:59:06.011Z,88.40
2017-11-03T07:01:34.907Z,88.40
2017-11-03T07:04:03.186Z,87.40
2017-11-03T07:06:32.219Z,88.40
2017-11-03T07:09:00.499Z,88.20
2017-11-03T07:11:28.779Z,88.30
2017-11-03T07:13:57.831Z,89.00
2017-11-03T07:16:27.324Z,88.10
2017-11-03T07:18:55.618Z,88.10
2017-11-03T07:21:24.656Z,88.30
2017-11-03T07:23:53.010Z,88.20
2017-11-03T07:26:21.286Z,88.90
2017-11-03T07:28:49.563Z,89.50
2017-11-03T07:31:18.619Z,90.30
2017-11-03T07:33:46.899Z,90.50
2017-11-03T07:36:15.191Z,90.10
2017-11-03T07:38:44.231Z,90.20
2017-11-03T07:41:12.512Z,90.20
2017-11-03T07:43:41.555Z,90.20
2017-11-03T07:46:09.867Z,90.20
2017-11-03T07:48:38.891Z,90.00
2017-11-03T07:51:07.155Z,90.00
2017-11-03T07:53:35.433Z,90.00
2017-11-03T07:56:03.754Z,90.40
2017-11-03T07:58:32.031Z,90.00
2017-11-03T08:01:00.355Z,88.80
2017-11-03T08:03:29.452Z,87.30
2017-11-03T08:05:57.715Z,87.20
2017-11-03T08:08:25.985Z,86.20
2017-11-03T08:10:54.830Z,86.10
2017-11-03T08:13:23.113Z,86.10
2017-11-03T08:15:51.407Z,85.10
2017-11-03T08:18:19.694Z,85.40
2017-11-03T08:20:48.788Z,86.10
2017-11-03T08:23:18.495Z,85.30
2017-11-03T08:25:47.553Z,87.20
2017-11-03T08:28:15.828Z,87.20
2017-11-03T08:30:44.943Z,86.50
2017-11-03T08:33:13.225Z,86.30
2017-11-03T08:35:41.940Z,85.10
2017-11-03T08:38:10.981Z,84.60
2017-11-03T08:40:39.253Z,84.60
2017-11-03T08:43:07.562Z,84.70
2017-11-03T08:45:35.838Z,85.00
2017-11-03T08:48:04.143Z,85.20
2017-11-03T08:50:32.430Z,85.90
2017-11-03T08:53:01.699Z,87.80
2017-11-03T08:55:30.730Z,86.90
2017-11-03T08:57:59.006Z,87.10
2017-11-03T09:00:27.298Z,86.50
2017-11-03T09:02:56.335Z,86.60
2017-11-03T09:05:24.622Z,86.40
2017-11-03T09:07:52.899Z,86.20
2017-11-03T09:10:22.102Z,85.10
2017-11-03T09:12:50.379Z,84.30
2017-11-03T09:15:18.706Z,81.80
2017-11-03T09:17:47.199Z,80.40
2017-11-03T09:20:15.530Z,80.40
2017-11-03T09:22:43.833Z,82.10
2017-11-03T09:25:12.107Z,82.30
2017-11-03T09:27:40.386Z,82.30
2017-11-03T09:30:08.672Z,79.70
2017-11-03T09:32:36.946Z,76.70
2017-11-03T09:35:05.994Z,76.40
2017-11-03T09:37:34.315Z,76.30
2017-11-03T09:40:02.619Z,77.60
2017-11-03T09:42:30.899Z,77.80
2017-11-03T09:45:00.063Z,79.70
2017-11-03T09:47:28.327Z,79.80
2017-11-03T09:49:56.651Z,81.20
2017-11-03T09:52:24.938Z,82.10
2017-11-03T09:54:53.230Z,82.30
2017-11-03T09:57:21.529Z,80.40
2017-11-03T09:59:50.691Z,79.10
2017-11-03T10:02:19.742Z,77.10
2017-11-03T10:04:48.032Z,77.10
2017-11-03T10:07:17.074Z,77.50
2017-11-03T10:09:45.359Z,77.40
2017-11-03T10:12:14.410Z,77.70
2017-11-03T10:14:42.687Z,77.60
2017-11-03T10:17:11.025Z,76.80
2017-11-03T10:19:39.315Z,75.70
2017-11-03T10:22:07.591Z,76.40
2017-11-03T10:24:36.651Z,77.80
2017-11-03T10:27:06.458Z,77.60
2017-11-03T10:29:35.437Z,74.50
2017-11-03T10:32:03.715Z,73.80
2017-11-03T10:34:33.388Z,73.00
2017-11-03T10:37:02.521Z,72.90
2017-11-03T10:39:30.798Z,72.50
2017-11-03T10:41:59.094Z,70.90
2017-11-03T10:44:27.375Z,71.20
2017-11-03T10:46:55.708Z,71.70
2017-11-03T10:49:23.969Z,70.30
2017-11-03T10:51:52.282Z,68.60
2017-11-03T10:54:20.591Z,69.40
2017-11-03T10:56:48.875Z,67.20
2017-11-03T10:59:17.934Z,67.10
2017-11-03T11:01:46.227Z,67.00
2017-11-03T11:04:15.681Z,65.40
2017-11-03T11:06:43.962Z,66.10
2017-11-03T11:09:13.758Z,64.80
2017-11-03T11:11:42.802Z,63.30
2017-11-03T11:14:11.170Z,63.20
2017-11-03T11:19:24.320Z,65.90
2017-11-03T11:21:53.369Z,65.20
2017-11-03T11:24:21.670Z,65.20
2017-11-03T11:26:50.122Z,65.20
2017-11-03T11:29:18.382Z,66.10
2017-11-03T11:31:47.694Z,62.90
2017-11-03T11:34:15.980Z,62.70
2017-11-03T11:36:44.281Z,60.90
2017-11-03T11:39:12.591Z,60.70
2017-11-03T11:41:42.086Z,60.00
2017-11-03T11:44:10.395Z,58.60
2017-11-03T11:46:38.690Z,55.90
2017-11-03T11:49:07.011Z,54.30
2017-11-03T11:51:35.283Z,50.70
2017-11-03T11:54:04.330Z,50.00
2017-11-03T11:56:32.831Z,49.60
2017-11-03T11:59:01.114Z,49.60
2017-11-03T12:01:29.390Z,49.60
2017-11-03T12:03:57.815Z,50.70
2017-11-03T12:06:26.081Z,51.50
2017-11-03T12:08:55.116Z,52.60
2017-11-03T12:11:24.110Z,52.80
2017-11-03T12:13:52.384Z,52.50
2017-11-03T12:16:21.446Z,50.80
2017-11-03T12:18:49.722Z,50.90
2017-11-03T12:21:18.066Z,50.80
2017-11-03T12:23:46.326Z,49.60
2017-11-03T12:26:16.855Z,48.50
2017-11-03T12:28:45.931Z,48.20
2017-11-03T12:31:14.222Z,48.10
2017-11-03T12:33:43.290Z,47.40
2017-11-03T12:36:12.374Z,47.30
2017-11-03T12:38:40.646Z,47.30
2017-11-03T12:41:09.691Z,49.70
2017-11-03T12:43:37.995Z,49.40
2017-11-03T12:46:06.294Z,47.10
2017-11-03T12:48:34.603Z,47.50
2017-11-03T12:51:03.674Z,46.50
2017-11-03T12:53:32.751Z,47.40
2017-11-03T12:56:01.035Z,47.40
2017-11-03T12:58:30.087Z,46.00
2017-11-03T13:00:58.401Z,46.10
2017-11-03T13:03:26.691Z,48.10
2017-11-03T13:05:54.982Z,47.70
2017-11-03T13:08:29.683Z,47.20
2017-11-03T13:10:57.971Z,47.10
2017-11-03T13:13:27.035Z,45.70
2017-11-03T13:15:56.100Z,47.40
2017-11-03T13:18:31.969Z,46.70
2017-11-03T13:21:01.030Z,46.20
2017-11-03T13:23:29.314Z,46.20
2017-11-03T13:25:58.420Z,46.80
2017-11-03T13:28:26.738Z,46.80
2017-11-03T13:30:55.802Z,48.40
2017-11-03T13:33:24.078Z,48.30
2017-11-03T13:35:53.118Z,47.40
2017-11-03T13:38:21.419Z,47.30
2017-11-03T13:40:50.467Z,46.20
2017-11-03T13:43:18.768Z,46.20
2017-11-03T13:45:47.803Z,46.00
2017-11-03T13:48:16.126Z,46.00
2017-11-03T13:50:44.419Z,48.80
2017-11-03T13:53:12.703Z,48.40
2017-11-03T13:55:41.007Z,49.60
2017-11-03T13:58:09.282Z,49.20
2017-11-03T14:00:37.574Z,49.00
2017-11-03T14:03:05.850Z,49.30
2017-11-03T14:05:34.151Z,47.60
2017-11-03T14:08:02.432Z,48.10
2017-11-03T14:10:30.742Z,48.10
2017-11-03T14:12:59.024Z,48.70
2017-11-03T14:15:28.079Z,50.10
2017-11-03T14:17:56.371Z,50.00
2017-11-03T14:20:25.403Z,49.10
2017-11-03T14:22:53.704Z,49.20
2017-11-03T14:25:22.747Z,52.10
2017-11-03T14:27:51.034Z,52.00
2017-11-03T14:30:19.335Z,51.00
2017-11-03T14:32:47.611Z,50.50
2017-11-03T14:35:15.890Z,52.30
2017-11-03T14:37:44.155Z,53.70
2017-11-03T14:40:12.450Z,51.00
2017-11-03T14:42:41.482Z,52.20
2017-11-03T14:45:09.823Z,52.20
2017-11-03T14:47:38.093Z,54.30
2017-11-03T14:50:06.366Z,54.80
2017-11-03T14:52:34.650Z,53.00
2017-11-03T14:55:04.440Z,53.60
2017-11-03T14:57:33.017Z,53.60
2017-11-03T15:00:01.266Z,51.90
2017-11-03T15:02:29.740Z,53.50
2017-11-03T15:04:58.103Z,54.00
2017-11-03T15:07:26.375Z,53.90
2017-11-03T15:09:54.658Z,54.30
2017-11-03T15:12:23.687Z,55.70
2017-11-03T15:14:51.977Z,55.60
2017-11-03T15:17:20.238Z,56.20
2017-11-03T15:19:48.523Z,56.30
2017-11-03T15:22:17.554Z,56.20
2017-11-03T15:24:45.872Z,56.10
2017-11-03T15:27:14.189Z,56.10
2017-11-03T15:29:42.459Z,58.90
2017-11-03T15:32:10.758Z,58.50
2017-11-03T15:34:39.038Z,59.40
2017-11-03T15:37:07.314Z,59.40
2017-11-03T15:39:35.589Z,59.30
2017-11-03T15:42:04.098Z,59.10
2017-11-03T15:44:33.126Z,58.90
2017-11-03T15:47:01.545Z,59.40
2017-11-03T15:49:30.587Z,59.20
2017-11-03T15:51:58.854Z,59.20
2017-11-03T15:54:27.131Z,59.70
2017-11-03T15:56:56.174Z,60.40
2017-11-03T15:59:24.466Z,60.30
2017-11-03T16:01:52.754Z,60.60
2017-11-03T16:04:21.103Z,60.90
2017-11-03T16:06:50.898Z,61.70
2017-11-03T16:09:19.947Z,61.70
2017-11-03T16:11:48.235Z,61.60
2017-11-03T16:14:19.418Z,64.30
2017-11-03T16:16:47.682Z,64.20
2017-11-03T16:19:15.947Z,65.10
2017-11-03T16:21:46.023Z,64.20
2017-11-03T16:24:14.422Z,64.10
2017-11-03T16:26:42.707Z,64.20
2017-11-03T16:29:17.147Z,66.10
2017-11-03T16:31:45.431Z,64.50
2017-11-03T16:34:13.715Z,66.50
2017-11-03T16:36:52.083Z,67.00
2017-11-03T16:39:21.906Z,66.40
2017-11-03T16:41:50.250Z,66.30
2017-11-03T16:44:18.526Z,65.80
2017-11-03T16:46:53.283Z,65.50
2017-11-03T16:49:22.327Z,65.90
2017-11-03T16:51:52.147Z,66.50
2017-11-03T16:54:21.182Z,66.90
2017-11-03T16:56:49.455Z,66.70
2017-11-03T16:59:17.802Z,67.40
2017-11-03T17:04:48.406Z,65.60
2017-11-03T17:07:17.507Z,66.00
2017-11-03T17:09:45.831Z,66.50
2017-11-03T17:12:14.850Z,67.30
2017-11-03T17:14:43.126Z,67.30
2017-11-03T17:17:11.405Z,67.90
2017-11-03T17:19:39.739Z,69.10
2017-11-03T17:22:08.003Z,70.40
2017-11-03T17:24:36.282Z,69.60
2017-11-03T17:27:06.106Z,69.00
2017-11-03T17:29:34.381Z,69.00
2017-11-03T17:32:02.670Z,68.60
2017-11-03T17:34:30.946Z,68.90
2017-11-03T17:36:59.230Z,70.40
2017-11-03T17:39:27.546Z,70.50
2017-11-03T17:41:55.868Z,70.40
2017-11-03T17:44:24.144Z,70.80
2017-11-03T17:46:53.184Z,71.30
2017-11-03T17:49:21.456Z,71.20
2017-11-03T17:51:49.736Z,71.20
2017-11-03T17:54:18.791Z,72.30
2017-11-03T17:56:47.061Z,72.30
2017-11-03T17:59:15.544Z,72.40
2017-11-03T18:01:43.955Z,72.40
2017-11-03T18:04:12.264Z,72.40
2017-11-03T18:06:41.303Z,72.20
2017-11-03T18:09:09.581Z,72.20
2017-11-03T18:11:37.856Z,73.00
2017-11-03T18:14:06.949Z,74.90
2017-11-03T18:16:35.973Z,75.80
2017-11-03T18:19:04.373Z,75.70
2017-11-03T18:21:32.677Z,76.00
2017-11-03T18:24:00.947Z,75.80
2017-11-03T18:26:29.233Z,76.50
2017-11-03T18:28:57.512Z,76.20
2017-11-03T18:31:25.802Z,76.30
2017-11-03T18:33:54.845Z,76.70
2017-11-03T18:36:23.165Z,76.60
2017-11-03T18:38:51.454Z,77.10
2017-11-03T18:41:19.722Z,76.10
2017-11-03T18:43:48.135Z,75.60
2017-11-03T18:46:17.174Z,75.90
2017-11-03T18:48:45.470Z,75.90
2017-11-03T18:51:15.782Z,76.50
2017-11-03T18:53:44.835Z,76.60
2017-11-03T18:56:13.094Z,76.50
2017-11-03T18:58:41.476Z,76.90
2017-11-03T19:01:10.506Z,76.50
2017-11-03T19:03:38.816Z,76.40
2017-11-03T19:06:07.855Z,76.90
2017-11-03T19:08:36.146Z,76.90
2017-11-03T19:11:05.338Z,76.90
2017-11-03T19:13:34.367Z,77.60
2017-11-03T19:16:02.708Z,77.60
2017-11-03T19:18:31.011Z,78.10
2017-11-03T19:20:59.304Z,79.20
2017-11-03T19:23:28.350Z,78.80
2017-11-03T19:25:56.688Z,78.60
2017-11-03T19:28:24.976Z,78.70
2017-11-03T19:30:53.242Z,78.50
2017-11-03T19:33:21.522Z,78.50
2017-11-03T19:35:50.596Z,79.60
2017-11-03T19:38:18.886Z,79.50
2017-11-03T19:40:47.160Z,79.50
2017-11-03T19:45:58.520Z,79.80
2017-11-03T19:48:35.988Z,79.40
2017-11-03T19:51:05.960Z,79.30
2017-11-03T19:53:34.287Z,79.40
2017-11-03T19:56:02.574Z,79.40
2017-11-03T19:58:30.867Z,79.30
2017-11-03T20:00:59.171Z,79.30
2017-11-03T20:03:27.440Z,79.30
2017-11-03T20:05:56.275Z,79.30
2017-11-03T20:08:28.679Z,79.90
2017-11-03T20:10:56.984Z,79.10
2017-11-03T20:13:26.082Z,79.90
2017-11-03T20:19:00.035Z,80.30
2017-11-03T21:00:47.979Z,82.90
2017-11-03T21:03:21.282Z,83.50
2017-11-03T21:05:49.587Z,82.80
2017-11-03T21:08:19.841Z,83.10
2017-11-03T21:10:51.730Z,82.90
2017-11-03T21:13:24.050Z,82.80
2017-11-03T21:15:54.973Z,81.90
2017-11-03T21:18:24.162Z,81.80
2017-11-03T21:20:57.216Z,81.90
2017-11-03T21:23:31.693Z,81.70
2017-11-03T21:25:59.977Z,82.00
2017-11-03T21:28:28.271Z,81.90
2017-11-03T21:31:02.803Z,82.00
2017-11-03T21:33:54.964Z,82.10
2017-11-03T21:36:24.743Z,80.90
2017-11-03T21:38:53.043Z,81.60
2017-11-03T21:46:39.351Z,81.20
2017-11-03T21:49:07.648Z,81.40
2017-11-03T21:51:35.922Z,82.10
2017-11-03T21:54:04.210Z,82.00
2017-11-03T21:56:33.255Z,81.20
2017-11-03T21:59:01.531Z,81.00
2017-11-03T22:01:29.830Z,81.50
2017-11-03T22:03:58.115Z,82.30
2017-11-03T22:06:26.420Z,82.30
2017-11-03T22:08:56.026Z,82.30
2017-11-03T22:11:25.066Z,82.80
2017-11-03T22:13:53.352Z,82.70
2017-11-03T22:16:21.635Z,82.40
2017-11-03T22:18:49.935Z,82.50
2017-11-03T22:21:18.206Z,83.00
2017-11-03T22:23:46.694Z,83.00
2017-11-03T22:26:14.971Z,82.70
2017-11-03T22:28:44.006Z,82.50
2017-11-03T22:31:12.291Z,82.40
2017-11-03T22:33:40.567Z,82.60
2017-11-03T22:36:08.846Z,83.00
2017-11-03T22:38:37.874Z,82.50
2017-11-03T22:41:06.179Z,82.50
2017-11-03T22:43:35.243Z,82.60
2017-11-03T22:46:03.782Z,82.60
2017-11-03T22:48:32.046Z,82.90
2017-11-03T22:51:00.311Z,83.00
2017-11-03T22:53:28.599Z,83.20
2017-11-03T22:55:56.882Z,83.10
2017-11-03T22:58:25.176Z,83.20
2017-11-03T23:00:53.443Z,83.40
2017-11-03T23:03:21.742Z,83.50
2017-11-03T23:05:49.997Z,83.30
2017-11-03T23:08:18.302Z,83.40
2017-11-03T23:10:46.570Z,83.10
2017-11-03T23:13:14.830Z,82.70
2017-11-03T23:15:43.109Z,82.60
2017-11-03T23:18:11.386Z,83.20
2017-11-03T23:20:39.670Z,83.00
2017-11-03T23:23:07.939Z,82.70
2017-11-03T23:25:36.997Z,82.90
2017-11-03T23:28:05.272Z,82.80
2017-11-03T23:30:33.756Z,81.70
2017-11-03T23:33:02.814Z,83.10
2017-11-03T23:35:31.066Z,83.10
2017-11-03T23:37:59.370Z,83.10
2017-11-03T23:40:28.399Z,83.90
2017-11-03T23:42:56.686Z,83.80
2017-11-03T23:45:25.727Z,84.00
2017-11-03T23:47:54.018Z,83.30
2017-11-03T23:50:22.294Z,83.20
2017-11-03T23:52:51.379Z,82.90
2017-11-03T23:55:20.418Z,83.00
2017-11-03T23:57:48.690Z,83.00
